Time;durP1;ratioP1;P1;durP2;ratioP2;P2;SDS_P1;SDS_P2;PMS_P1;PMS_P2;Temp;Humidity;BMP_temperature;BMP_pressure;BME280_temperature;BME280_humidity;BME280_pressure;Samples;Min_cycle;Max_cycle;Signal;HPM_P1;HPM_P2
2022/06/18 00:00:26;;;;;;;5.23;4.73;;;;;;;19.59;79.03;98724.72;4222709;28;20671;-85
2022/06/18 00:02:29;;;;;;;5.50;5.00;;;;;;;19.55;79.40;98724.16;4216328;28;20706;-85
2022/06/18 00:04:34;;;;;;;6.03;4.87;;;;;;;19.53;78.14;98723.50;4216476;28;20629;-84
2022/06/18 00:06:41;;;;;;;5.60;5.00;;;;;;;19.50;79.15;98717.63;4201807;28;20640;-85
2022/06/18 00:08:44;;;;;;;6.13;5.10;;;;;;;19.45;79.21;98704.88;4207473;28;21251;-85
2022/06/18 00:10:47;;;;;;;5.27;4.57;;;;;;;19.43;78.45;98709.44;4195299;28;20685;-85
2022/06/18 00:15:23;;;;;;;4.80;4.37;;;;;;;19.39;76.96;98713.38;4198240;28;20640;-84
2022/06/18 00:17:26;;;;;;;4.90;4.40;;;;;;;19.35;79.24;98708.50;4190569;28;20671;-85
2022/06/18 00:19:30;;;;;;;6.10;4.70;;;;;;;19.33;78.82;98705.16;4201207;28;20651;-85
2022/06/18 00:21:34;;;;;;;5.40;4.90;;;;;;;19.31;79.92;98707.13;4200544;28;20675;-84
2022/06/18 00:23:38;;;;;;;5.00;4.53;;;;;;;19.28;79.65;98703.94;4205247;28;20643;-85
2022/06/18 00:25:51;;;;;;;6.33;4.53;;;;;;;19.27;79.68;98704.91;4211681;28;20644;-85
2022/06/18 00:27:54;;;;;;;7.13;4.93;;;;;;;19.23;79.63;98703.50;4224686;28;20620;-85
2022/06/18 00:29:58;;;;;;;4.90;4.40;;;;;;;19.22;79.24;98709.81;4203388;28;20663;-84
2022/06/18 00:32:01;;;;;;;4.93;4.33;;;;;;;19.18;79.87;98709.22;4210214;28;21278;-84
2022/06/18 00:34:04;;;;;;;5.67;4.30;;;;;;;19.15;79.18;98706.03;4205475;28;21285;-85
2022/06/18 00:36:13;;;;;;;6.80;5.67;;;;;;;19.14;79.37;98701.72;4198888;28;20633;-84
2022/06/18 00:38:23;;;;;;;5.30;4.80;;;;;;;19.12;78.27;98703.69;4216035;28;20983;-85
2022/06/18 00:40:32;;;;;;;5.10;4.60;;;;;;;19.10;78.98;98703.00;4197691;28;20651;-85
2022/06/18 00:42:35;;;;;;;4.60;4.03;;;;;;;19.08;79.36;98705.78;4219512;28;20633;-85
2022/06/18 00:44:55;;;;;;;4.57;4.17;;;;;;;19.05;79.38;98700.78;4201687;28;20680;-84
2022/06/18 00:47:07;;;;;;;5.10;4.60;;;;;;;19.03;79.05;98707.19;4206547;28;20633;-85
2022/06/18 00:49:17;;;;;;;5.10;4.60;;;;;;;18.99;79.56;98700.50;4220320;28;20625;-85
2022/06/18 00:51:24;;;;;;;4.47;4.00;;;;;;;18.98;78.79;98704.91;4214914;28;21037;-84
2022/06/18 00:53:31;;;;;;;5.77;4.80;;;;;;;18.98;79.44;98696.16;4212108;28;21039;-85
2022/06/18 00:55:38;;;;;;;5.03;4.53;;;;;;;18.95;79.91;98699.91;4213440;28;20629;-84
2022/06/18 00:57:46;;;;;;;5.77;4.63;;;;;;;18.93;78.47;98698.41;4203761;28;20702;-84
2022/06/18 00:59:52;;;;;;;4.50;4.10;;;;;;;18.91;78.19;98698.56;4214878;28;20698;-84
2022/06/18 01:01:56;;;;;;;5.43;4.93;;;;;;;18.90;79.25;98696.88;4202986;28;21386;-85
2022/06/18 01:04:00;;;;;;;5.20;4.70;;;;;;;18.88;78.91;98690.91;4225053;28;20625;-84
2022/06/18 01:06:12;;;;;;;6.10;4.90;;;;;;;18.89;78.38;98689.09;4206752;28;21299;-84
2022/06/18 01:08:17;;;;;;;5.00;4.50;;;;;;;18.87;79.02;98680.47;4207069;28;20730;-84
2022/06/18 01:10:28;;;;;;;5.60;4.70;;;;;;;18.84;79.75;98679.88;4204389;28;20641;-85
2022/06/18 01:12:31;;;;;;;4.90;4.40;;;;;;;18.83;79.29;98694.94;4203136;28;21234;-84
2022/06/18 01:14:36;;;;;;;5.53;4.60;;;;;;;18.78;80.14;98691.88;4221904;28;20661;-84
2022/06/18 01:16:39;;;;;;;4.67;4.20;;;;;;;18.75;80.08;98688.66;4214022;28;20629;-84
2022/06/18 01:18:46;;;;;;;5.40;4.77;;;;;;;18.72;80.51;98688.94;4205951;28;20639;-84
2022/06/18 01:20:52;;;;;;;5.40;4.90;;;;;;;18.68;79.42;98683.13;4201197;28;20629;-85
2022/06/18 01:23:07;;;;;;;5.90;4.70;;;;;;;18.65;78.96;98686.03;4213566;28;20660;-85
2022/06/18 01:25:12;;;;;;;5.63;5.10;;;;;;;18.61;79.79;98686.44;4205092;28;20634;-84
2022/06/18 01:27:19;;;;;;;5.23;4.73;;;;;;;18.57;79.87;98682.44;4205866;28;20781;-85
2022/06/18 01:29:24;;;;;;;4.93;4.43;;;;;;;18.56;80.40;98680.75;4210878;28;20631;-84
2022/06/18 01:31:28;;;;;;;5.10;4.30;;;;;;;18.53;79.64;98676.56;4222098;28;20633;-84
2022/06/18 01:33:33;;;;;;;5.43;4.83;;;;;;;18.52;79.46;98677.56;4208329;28;20620;-84
2022/06/18 01:35:39;;;;;;;6.53;4.60;;;;;;;18.50;79.83;98676.84;4208865;28;20742;-85
2022/06/18 01:37:50;;;;;;;5.90;4.33;;;;;;;18.47;79.76;98666.56;4209245;28;20712;-85
2022/06/18 01:40:03;;;;;;;4.83;4.30;;;;;;;18.45;80.57;98668.53;4204656;28;20631;-84
2022/06/18 01:42:11;;;;;;;4.90;4.40;;;;;;;18.46;79.79;98662.28;4205153;28;20673;-84
2022/06/18 01:44:21;;;;;;;4.83;4.33;;;;;;;18.44;78.07;98661.56;4221617;28;20666;-84
2022/06/18 01:46:26;;;;;;;5.03;4.53;;;;;;;18.41;79.30;98659.19;4225105;28;20732;-84
2022/06/18 01:48:32;;;;;;;5.03;4.53;;;;;;;18.39;79.13;98656.81;4220243;28;20737;-84
2022/06/18 01:50:45;;;;;;;5.20;4.70;;;;;;;18.34;79.80;98651.13;4218133;28;20634;-85
2022/06/18 01:52:51;;;;;;;7.07;5.40;;;;;;;18.33;80.35;98644.16;4214498;28;20622;-85
2022/06/18 01:54:58;;;;;;;7.73;4.63;;;;;;;18.28;80.21;98651.69;4207645;28;21245;-84
2022/06/18 01:57:05;;;;;;;4.80;4.30;;;;;;;18.25;80.81;98644.03;4221546;28;20639;-84
2022/06/18 01:59:15;;;;;;;5.37;4.83;;;;;;;18.23;80.62;98644.19;4201265;28;20673;-84
2022/06/18 02:01:24;;;;;;;5.90;4.37;;;;;;;18.24;79.95;98637.94;4198928;28;20670;-84
2022/06/18 02:03:27;;;;;;;5.23;4.73;;;;;;;18.23;80.50;98636.25;4205405;28;20692;-84
2022/06/18 02:05:31;;;;;;;5.30;4.37;;;;;;;18.21;80.16;98629.47;4216065;28;21191;-84
2022/06/18 02:07:35;;;;;;;5.37;4.87;;;;;;;18.20;80.13;98627.78;4215033;28;20686;-84
2022/06/18 02:09:41;;;;;;;5.17;4.67;;;;;;;18.16;80.13;98634.31;4200334;28;20646;-84
2022/06/18 02:11:44;;;;;;;5.53;4.77;;;;;;;18.13;80.79;98624.00;4208004;28;20745;-84
2022/06/18 02:13:51;;;;;;;5.10;4.47;;;;;;;18.10;79.59;98627.75;4207520;28;20635;-84
2022/06/18 02:15:58;;;;;;;4.53;4.13;;;;;;;18.08;80.67;98634.13;4208748;28;20637;-84
2022/06/18 02:18:05;;;;;;;4.57;4.17;;;;;;;18.04;80.43;98630.09;4207090;28;20639;-84
2022/06/18 02:20:17;;;;;;;4.90;4.40;;;;;;;17.99;81.13;98627.84;4208318;28;21302;-85
2022/06/18 02:22:24;;;;;;;5.40;4.20;;;;;;;17.95;80.88;98623.84;4205605;28;20660;-84
2022/06/18 02:24:30;;;;;;;4.97;4.20;;;;;;;17.90;81.84;98627.84;4219100;28;20637;-84
2022/06/18 02:26:35;;;;;;;5.70;5.07;;;;;;;17.88;80.49;98629.81;4208227;28;20641;-84
2022/06/18 02:28:40;;;;;;;5.17;4.63;;;;;;;17.85;80.93;98629.25;4201632;28;20635;-84
2022/06/18 02:30:45;;;;;;;4.70;4.30;;;;;;;17.83;81.26;98620.63;4221845;28;20629;-84
2022/06/18 02:32:56;;;;;;;4.67;4.27;;;;;;;17.78;81.18;98618.38;4224325;28;20635;-85
2022/06/18 02:35:00;;;;;;;6.40;5.03;;;;;;;17.75;82.06;98620.47;4217071;28;20659;-84
2022/06/18 02:37:10;;;;;;;5.20;4.50;;;;;;;17.72;82.36;98618.09;4212711;28;20634;-84
2022/06/18 02:39:22;;;;;;;6.90;4.77;;;;;;;17.71;81.65;98622.56;4206609;28;20736;-85
2022/06/18 02:41:26;;;;;;;5.33;4.83;;;;;;;17.71;81.06;98616.41;4213959;28;21255;-84
2022/06/18 02:43:29;;;;;;;5.67;5.17;;;;;;;17.69;81.88;98624.47;4224057;28;20693;-84
2022/06/18 02:45:33;;;;;;;5.10;4.60;;;;;;;17.66;82.22;98622.09;4203984;28;20654;-84
2022/06/18 02:47:36;;;;;;;5.00;4.50;;;;;;;17.63;82.48;98614.47;4206018;28;20637;-84
2022/06/18 02:49:45;;;;;;;6.80;4.80;;;;;;;17.60;81.85;98614.72;4217311;28;20662;-85
2022/06/18 02:51:51;;;;;;;5.40;4.90;;;;;;;17.58;82.74;98615.84;4193783;28;21079;-84
2022/06/18 02:53:54;;;;;;;5.00;4.27;;;;;;;17.56;81.80;98609.84;4219963;28;20733;-84
2022/06/18 02:56:02;;;;;;;5.10;4.60;;;;;;;17.53;82.26;98607.50;4206504;28;21138;-84
2022/06/18 02:58:09;;;;;;;5.60;5.00;;;;;;;17.52;82.75;98614.56;4227280;27;21348;-84
2022/06/18 03:00:13;;;;;;;5.20;4.73;;;;;;;17.53;82.20;98618.88;4222177;27;20737;-84
2022/06/18 03:02:16;;;;;;;5.30;4.80;;;;;;;17.53;82.79;98613.63;4207091;28;20613;-84
2022/06/18 03:04:22;;;;;;;5.30;4.80;;;;;;;17.53;81.14;98615.44;4205448;28;20636;-84
2022/06/18 03:06:29;;;;;;;5.93;5.03;;;;;;;17.51;81.83;98618.19;4197679;28;20727;-84
2022/06/18 03:08:33;;;;;;;6.57;4.73;;;;;;;17.52;82.85;98616.38;4220781;28;20624;-84
2022/06/18 03:12:59;;;;;;;5.73;5.20;;;;;;;17.48;82.46;98615.84;4207769;28;20651;-85
2022/06/18 03:15:06;;;;;;;5.97;4.70;;;;;;;17.49;81.37;98614.00;4209742;28;20648;-84
2022/06/18 03:17:09;;;;;;;4.80;4.30;;;;;;;17.50;82.17;98616.53;4205754;28;21394;-84
2022/06/18 03:19:19;;;;;;;5.10;4.60;;;;;;;17.49;82.24;98606.94;4215412;28;20632;-84
2022/06/18 03:21:26;;;;;;;4.83;4.33;;;;;;;17.48;83.08;98607.91;4214992;28;21014;-84
2022/06/18 03:23:31;;;;;;;4.83;4.43;;;;;;;17.46;81.86;98605.53;4217749;27;21022;-84
2022/06/18 03:25:34;;;;;;;8.53;5.23;;;;;;;17.45;81.35;98604.69;4221816;28;21237;-84
2022/06/18 03:27:41;;;;;;;7.10;4.90;;;;;;;17.46;81.27;98608.19;4205401;28;20686;-84
2022/06/18 03:29:52;;;;;;;5.40;4.90;;;;;;;17.44;82.62;98603.03;4208605;28;20644;-84
2022/06/18 03:31:57;;;;;;;5.80;4.97;;;;;;;17.44;82.70;98604.81;4216499;28;20987;-84
2022/06/18 03:34:03;;;;;;;5.33;4.57;;;;;;;17.43;82.25;98608.44;4206174;28;20644;-84
2022/06/18 03:36:09;;;;;;;5.60;4.57;;;;;;;17.43;83.41;98611.91;4203869;28;20648;-84
2022/06/18 03:38:14;;;;;;;5.70;5.20;;;;;;;17.44;82.62;98618.00;4204999;28;21221;-84
2022/06/18 03:40:21;;;;;;;6.33;4.90;;;;;;;17.44;81.58;98607.47;4218252;28;20655;-84
2022/06/18 03:42:24;;;;;;;5.93;5.20;;;;;;;17.45;81.48;98620.50;4202666;28;20685;-84
2022/06/18 03:44:27;;;;;;;7.27;5.70;;;;;;;17.46;82.53;98618.72;4199185;28;21084;-84
2022/06/18 03:46:32;;;;;;;5.50;5.00;;;;;;;17.46;81.16;98621.38;4218952;28;21054;-84
2022/06/18 03:48:42;;;;;;;5.80;4.93;;;;;;;17.46;81.34;98624.84;4200215;28;20713;-84
2022/06/18 03:50:45;;;;;;;6.13;5.30;;;;;;;17.47;81.60;98629.16;4218519;28;20657;-84
2022/06/18 03:52:49;;;;;;;5.27;4.87;;;;;;;17.47;82.46;98629.16;4205494;28;21243;-84
2022/06/18 03:54:53;;;;;;;7.03;5.20;;;;;;;17.47;82.07;98627.34;4217073;28;20764;-84
2022/06/18 03:56:58;;;;;;;5.40;4.90;;;;;;;17.48;81.52;98629.03;4199996;28;20686;-84
2022/06/18 03:59:04;;;;;;;5.83;5.20;;;;;;;17.50;83.17;98627.06;4199592;28;20735;-84
2022/06/18 04:01:12;;;;;;;5.73;4.90;;;;;;;17.54;81.70;98635.53;4215533;28;20664;-84
2022/06/18 04:03:15;;;;;;;5.53;4.47;;;;;;;17.56;82.30;98633.59;4218304;28;21272;-84
2022/06/18 04:05:19;;;;;;;5.70;5.10;;;;;;;17.57;83.07;98630.00;4203590;28;20663;-84
2022/06/18 04:07:23;;;;;;;5.50;5.00;;;;;;;17.60;81.53;98629.72;4200223;28;20669;-84
2022/06/18 04:09:56;;;;;;;5.53;4.70;;;;;;;17.63;80.95;98635.56;4204848;28;20688;-85
2022/06/18 04:12:04;;;;;;;5.90;5.30;;;;;;;17.67;82.49;98634.34;4207545;28;21262;-84
2022/06/18 04:14:24;;;;;;;5.50;5.00;;;;;;;17.69;81.78;98634.19;4221335;28;21007;-84
2022/06/18 04:16:59;;;;;;;5.30;4.80;;;;;;;17.74;81.65;98635.47;4187726;28;20632;-84
2022/06/18 04:19:03;;;;;;;5.67;5.07;;;;;;;17.78;81.71;98643.94;4211943;28;21084;-84
2022/06/18 04:21:06;;;;;;;5.83;4.97;;;;;;;17.81;81.11;98636.59;4219151;28;20648;-84
2022/06/18 04:23:15;;;;;;;5.23;4.80;;;;;;;17.82;80.83;98638.25;4204073;28;20645;-84
2022/06/18 04:25:21;;;;;;;5.80;5.30;;;;;;;17.87;81.93;98640.50;4202497;28;21052;-84
2022/06/18 04:27:26;;;;;;;5.57;5.07;;;;;;;17.92;81.46;98640.91;4220040;28;20638;-84
2022/06/18 04:29:29;;;;;;;5.77;4.90;;;;;;;17.98;81.64;98643.84;4202539;28;20646;-84
2022/06/18 04:31:32;;;;;;;5.40;4.90;;;;;;;18.01;81.67;98640.91;4205648;28;20627;-84
2022/06/18 04:33:36;;;;;;;6.17;5.20;;;;;;;18.07;79.89;98641.22;4201378;28;20652;-85
2022/06/18 04:35:59;;;;;;;5.90;5.30;;;;;;;18.11;78.99;98639.97;4204502;28;20657;-84
2022/06/18 04:38:04;;;;;;;5.77;5.17;;;;;;;18.15;79.63;98637.94;4219968;28;21057;-84
2022/06/18 04:40:32;;;;;;;8.10;5.20;;;;;;;18.19;78.81;98640.16;4218573;28;20629;-85
2022/06/18 04:43:18;;;;;;;6.13;5.13;;;;;;;18.28;78.82;98646.41;4208261;28;21027;-85
2022/06/18 04:45:24;;;;;;;6.13;5.50;;;;;;;18.31;79.38;98643.50;4206979;28;20645;-84
2022/06/18 04:47:33;;;;;;;5.40;4.90;;;;;;;18.39;78.76;98640.97;4203748;28;21206;-84
2022/06/18 04:49:37;;;;;;;8.77;5.63;;;;;;;18.44;79.75;98650.97;4205120;28;20692;-84
2022/06/18 04:51:50;;;;;;;5.80;5.20;;;;;;;18.52;78.81;98650.28;4219064;28;20667;-84
2022/06/18 04:54:04;;;;;;;5.70;5.10;;;;;;;18.58;79.25;98650.59;4207233;28;20630;-84
2022/06/18 04:56:08;;;;;;;5.43;4.97;;;;;;;18.64;78.85;98635.97;4206187;28;20722;-84
2022/06/18 04:58:13;;;;;;;5.90;5.30;;;;;;;18.70;78.16;98644.19;4204364;28;20634;-84
2022/06/18 05:00:24;;;;;;;5.90;5.37;;;;;;;18.77;78.86;98647.09;4214099;28;20642;-84
2022/06/18 05:02:49;;;;;;;5.77;5.27;;;;;;;18.81;77.91;98643.16;4206249;28;20720;-84
2022/06/18 05:05:21;;;;;;;5.60;5.10;;;;;;;18.85;77.29;98645.38;4214551;28;20672;-84
2022/06/18 05:07:53;;;;;;;6.03;5.50;;;;;;;18.92;78.83;98654.44;4212299;28;20625;-83
2022/06/18 05:10:17;;;;;;;5.93;5.33;;;;;;;19.01;78.70;98654.44;4192571;28;20637;-84
2022/06/18 05:12:36;;;;;;;6.27;5.67;;;;;;;19.06;77.00;98644.28;4210672;28;20644;-84
2022/06/18 05:15:00;;;;;;;5.47;4.97;;;;;;;19.10;76.51;98650.09;4214247;28;20625;-84
2022/06/18 05:17:12;;;;;;;6.10;5.60;;;;;;;19.14;76.82;98643.53;4218390;28;20661;-84
2022/06/18 05:19:24;;;;;;;6.33;5.40;;;;;;;19.25;77.79;98653.97;4222815;28;20731;-84
2022/06/18 05:21:30;;;;;;;6.40;5.13;;;;;;;19.37;78.43;98655.44;4221549;28;20956;-85
2022/06/18 05:23:33;;;;;;;5.83;5.33;;;;;;;19.47;77.11;98655.25;4210901;28;20623;-84
2022/06/18 05:25:37;;;;;;;6.30;5.70;;;;;;;19.59;78.23;98654.09;4202383;28;20615;-84
2022/06/18 05:27:49;;;;;;;7.00;6.23;;;;;;;19.71;77.89;98650.28;4225814;28;21041;-84
2022/06/18 05:30:03;;;;;;;5.93;5.43;;;;;;;19.86;78.44;98648.84;4211762;28;20633;-84
2022/06/18 05:32:35;;;;;;;6.37;5.60;;;;;;;20.02;77.60;98646.34;4223867;28;21177;-84
2022/06/18 05:34:38;;;;;;;6.70;6.00;;;;;;;20.16;78.24;98637.88;4205365;28;20695;-85
2022/06/18 05:36:42;;;;;;;6.40;5.80;;;;;;;20.33;77.93;98636.06;4212617;28;21236;-85
2022/06/18 05:38:45;;;;;;;6.80;5.40;;;;;;;20.57;77.07;98646.91;4230168;28;20629;-85
2022/06/18 05:40:50;;;;;;;6.00;5.40;;;;;;;20.81;76.64;98641.84;4211117;28;20678;-85
2022/06/18 05:42:54;;;;;;;8.20;5.67;;;;;;;21.09;74.69;98640.69;4210730;28;20615;-85
2022/06/18 05:44:58;;;;;;;6.57;5.40;;;;;;;21.38;74.99;98642.88;4209632;28;20720;-85
2022/06/18 05:47:02;;;;;;;5.87;5.37;;;;;;;21.65;73.76;98647.16;4227203;28;20636;-84
2022/06/18 05:49:07;;;;;;;5.07;4.57;;;;;;;21.93;73.44;98641.47;4210860;28;20638;-85
2022/06/18 05:51:11;;;;;;;5.13;4.73;;;;;;;22.19;71.33;98644.84;4205557;28;20691;-84
2022/06/18 05:53:25;;;;;;;5.90;5.30;;;;;;;22.51;70.84;98649.25;4235023;27;20620;-85
2022/06/18 05:56:00;;;;;;;5.33;4.83;;;;;;;22.85;69.69;98642.78;4222407;28;20629;-85
2022/06/18 05:58:29;;;;;;;5.87;5.37;;;;;;;23.16;68.17;98646.44;4207374;28;20714;-85
2022/06/18 06:00:42;;;;;;;5.77;5.27;;;;;;;23.41;67.78;98648.88;4209292;28;21030;-85
2022/06/18 06:02:45;;;;;;;5.63;5.03;;;;;;;23.68;68.45;98648.50;4206059;28;20662;-85
2022/06/18 06:04:50;;;;;;;5.60;5.07;;;;;;;23.92;67.98;98640.38;4214031;28;20629;-85
2022/06/18 06:06:53;;;;;;;8.90;6.20;;;;;;;24.15;67.99;98639.44;4199885;28;21229;-85
2022/06/18 06:08:56;;;;;;;6.23;5.63;;;;;;;24.37;68.27;98639.50;4203523;28;20635;-85
2022/06/18 06:13:33;;;;;;;5.17;4.77;;;;;;;24.93;67.18;98642.53;4175618;28;21036;-85
2022/06/18 06:15:37;;;;;;;7.00;5.73;;;;;;;25.17;66.47;98643.19;4206882;28;20693;-85
2022/06/18 06:17:41;;;;;;;5.93;5.00;;;;;;;25.40;65.12;98643.13;4204170;28;20652;-85
2022/06/18 06:19:44;;;;;;;6.70;5.20;;;;;;;25.59;64.82;98643.41;4206663;28;20703;-85
2022/06/18 06:21:48;;;;;;;5.47;4.97;;;;;;;25.76;63.46;98643.03;4215308;28;21067;-85
2022/06/18 06:23:52;;;;;;;5.80;5.30;;;;;;;26.00;64.71;98645.41;4202384;28;20629;-86
2022/06/18 06:25:55;;;;;;;5.63;5.10;;;;;;;26.18;62.57;98637.81;4216912;28;20677;-85
2022/06/18 06:27:59;;;;;;;5.77;5.07;;;;;;;26.40;64.03;98645.72;4217181;28;21574;-84
2022/06/18 06:30:03;;;;;;;6.20;5.20;;;;;;;26.57;63.15;98644.47;4206482;28;21240;-85
2022/06/18 06:32:13;;;;;;;5.37;4.87;;;;;;;26.82;63.76;98632.31;4219991;28;20634;-85
2022/06/18 06:34:21;;;;;;;5.07;4.63;;;;;;;27.02;62.42;98633.34;4217653;28;21272;-85
2022/06/18 06:36:24;;;;;;;5.30;4.80;;;;;;;27.22;62.61;98643.22;4207824;28;20764;-85
2022/06/18 06:38:32;;;;;;;5.20;4.80;;;;;;;27.41;62.40;98635.31;4205554;28;20699;-85
2022/06/18 06:40:40;;;;;;;5.20;4.80;;;;;;;27.60;61.53;98640.00;4218794;28;20672;-85
2022/06/18 06:42:44;;;;;;;5.03;4.50;;;;;;;27.73;61.00;98634.72;4218760;28;20638;-86
2022/06/18 06:44:47;;;;;;;5.43;4.80;;;;;;;27.87;60.76;98645.28;4217903;28;21193;-89
2022/06/18 06:46:54;;;;;;;5.53;5.03;;;;;;;28.12;61.75;98641.94;4208933;28;20634;-89
2022/06/18 06:48:58;;;;;;;5.10;4.70;;;;;;;28.41;62.50;98633.56;4218641;28;21217;-84
2022/06/18 06:51:01;;;;;;;4.53;4.13;;;;;;;28.56;60.05;98632.34;4224584;28;20640;-84
2022/06/18 06:53:05;;;;;;;5.90;4.53;;;;;;;28.75;60.66;98628.09;4214583;28;20631;-84
2022/06/18 06:57:37;;;;;;;5.70;4.50;;;;;;;29.13;60.24;98636.16;4203221;28;20662;-84
2022/06/18 06:59:41;;;;;;;5.93;4.80;;;;;;;29.34;58.80;98635.97;4209223;28;20660;-83
2022/06/18 07:01:45;;;;;;;5.00;4.60;;;;;;;29.46;59.30;98633.47;4212728;28;20639;-84
2022/06/18 07:03:48;;;;;;;5.30;4.50;;;;;;;29.68;58.07;98636.53;4216096;28;20667;-84
2022/06/18 07:05:52;;;;;;;4.70;4.30;;;;;;;29.85;57.18;98629.66;4209220;28;20622;-84
2022/06/18 07:07:55;;;;;;;5.50;4.40;;;;;;;30.01;57.88;98637.28;4218758;28;20618;-84
2022/06/18 07:09:58;;;;;;;4.80;4.40;;;;;;;30.11;57.28;98640.34;4207809;28;20623;-83
2022/06/18 07:12:03;;;;;;;5.60;5.00;;;;;;;30.16;57.02;98638.66;4205240;28;21208;-87
2022/06/18 07:14:07;;;;;;;5.20;4.70;;;;;;;30.28;57.13;98636.09;4204739;28;20647;-86
2022/06/18 07:16:10;;;;;;;4.90;3.90;;;;;;;30.42;55.61;98635.88;4205493;28;20741;-86
2022/06/18 07:18:17;;;;;;;6.20;5.10;;;;;;;30.57;55.29;98633.72;4205825;28;20697;-87
2022/06/18 07:20:22;;;;;;;5.93;5.40;;;;;;;30.72;55.86;98635.06;4225644;28;20630;-86
2022/06/18 07:22:26;;;;;;;7.97;6.13;;;;;;;30.92;53.88;98633.88;4210196;28;20672;-86
2022/06/18 07:24:29;;;;;;;4.30;3.90;;;;;;;31.10;52.25;98636.66;4218792;28;20657;-87
2022/06/18 07:26:32;;;;;;;7.40;6.80;;;;;;;31.24;54.20;98642.75;4208927;28;20635;-87
2022/06/18 07:28:37;;;;;;;11.97;10.90;;;;;;;31.36;51.35;98632.91;4206400;28;20658;-87
2022/06/18 07:30:40;;;;;;;7.00;4.57;;;;;;;31.47;51.81;98641.13;4209325;28;20644;-87
2022/06/18 07:32:46;;;;;;;4.63;4.03;;;;;;;31.58;52.36;98641.22;4223068;28;20637;-86
2022/06/18 07:34:49;;;;;;;6.23;4.50;;;;;;;31.66;54.76;98634.69;4198155;28;20654;-87
2022/06/18 07:36:52;;;;;;;4.53;4.13;;;;;;;31.77;54.36;98634.78;4203929;28;20718;-87
2022/06/18 07:38:56;;;;;;;6.80;4.40;;;;;;;31.85;52.89;98628.28;4203565;28;20647;-89
2022/06/18 07:40:59;;;;;;;4.60;4.10;;;;;;;31.89;53.05;98633.00;4201948;28;20994;-87
2022/06/18 07:43:03;;;;;;;4.73;4.33;;;;;;;31.98;52.55;98618.16;4206053;28;20643;-87
2022/06/18 07:45:14;;;;;;;4.40;4.00;;;;;;;32.05;51.28;98622.41;4203217;28;21028;-87
2022/06/18 07:47:19;;;;;;;4.37;3.97;;;;;;;32.16;51.33;98613.56;4200871;28;20730;-87
2022/06/18 07:49:23;;;;;;;4.50;4.10;;;;;;;32.24;51.86;98612.44;4207991;28;20692;-87
2022/06/18 07:51:27;;;;;;;4.10;3.70;;;;;;;32.34;52.71;98608.13;4207168;28;20626;-87
2022/06/18 07:53:30;;;;;;;4.73;4.33;;;;;;;32.48;53.25;98607.75;4206590;28;21302;-87
2022/06/18 07:55:34;;;;;;;4.37;3.97;;;;;;;32.58;52.05;98601.78;4208651;28;21244;-87
2022/06/18 07:57:37;;;;;;;5.87;4.00;;;;;;;32.66;50.00;98601.47;4199675;28;20640;-87
2022/06/18 07:59:40;;;;;;;4.47;4.07;;;;;;;32.70;50.04;98602.63;4206040;28;20689;-87
2022/06/18 08:01:45;;;;;;;5.00;3.90;;;;;;;32.78;51.76;98600.44;4216146;28;20692;-87
2022/06/18 08:03:48;;;;;;;4.53;4.13;;;;;;;32.79;49.73;98606.66;4203232;28;20674;-87
2022/06/18 08:05:52;;;;;;;4.03;3.73;;;;;;;32.80;50.44;98602.91;4218822;28;20632;-87
2022/06/18 08:07:56;;;;;;;7.17;6.57;;;;;;;32.95;51.36;98604.94;4215860;28;20645;-87
2022/06/18 08:10:19;;;;;;;3.70;3.40;;;;;;;33.04;50.33;98600.84;4199511;28;20742;-87
2022/06/18 08:12:22;;;;;;;4.30;3.90;;;;;;;33.13;49.43;98593.22;4217639;28;20673;-87
2022/06/18 08:14:26;;;;;;;3.83;3.53;;;;;;;33.19;48.62;98598.50;4201438;28;20642;-87
2022/06/18 08:16:29;;;;;;;3.90;3.60;;;;;;;33.25;51.26;98589.44;4206362;28;20631;-87
2022/06/18 08:18:34;;;;;;;4.37;3.97;;;;;;;33.30;48.91;98588.75;4219766;28;20645;-87
2022/06/18 08:20:37;;;;;;;4.20;3.80;;;;;;;33.37;48.76;98590.28;4218219;28;20679;-87
2022/06/18 08:22:42;;;;;;;4.40;4.00;;;;;;;33.43;50.61;98590.19;4218811;28;21079;-87
2022/06/18 08:24:45;;;;;;;4.27;3.90;;;;;;;33.45;48.05;98596.19;4218584;28;21079;-87
2022/06/18 08:26:49;;;;;;;4.30;3.70;;;;;;;33.50;48.60;98590.91;4201440;28;20707;-87
2022/06/18 08:28:52;;;;;;;3.70;3.40;;;;;;;33.58;47.94;98592.41;4228481;28;20630;-87
2022/06/18 08:31:03;;;;;;;4.40;3.90;;;;;;;33.59;49.08;98594.03;4220715;27;20729;-87
2022/06/18 08:33:15;;;;;;;4.20;3.60;;;;;;;33.57;49.39;98588.06;4216029;28;20641;-87
2022/06/18 08:35:21;;;;;;;10.03;4.50;;;;;;;33.54;48.88;98586.63;4202148;28;21229;-87
2022/06/18 08:37:25;;;;;;;7.20;6.50;;;;;;;33.58;47.85;98587.00;4199163;28;20662;-87
2022/06/18 08:39:29;;;;;;;4.50;4.20;;;;;;;33.60;49.39;98584.88;4203124;28;20674;-87
2022/06/18 08:41:40;;;;;;;4.83;4.33;;;;;;;33.61;47.54;98578.41;4218381;28;20627;-87
2022/06/18 08:44:40;;;;;;;4.47;4.17;;;;;;;33.65;48.91;98582.25;4163135;28;20656;-87
2022/06/18 08:46:50;;;;;;;4.07;3.77;;;;;;;33.75;49.04;98574.38;4156004;28;21172;-87
2022/06/18 08:49:07;;;;;;;4.50;4.10;;;;;;;33.85;48.42;98578.13;4163278;28;20672;-87
2022/06/18 08:51:22;;;;;;;4.40;4.00;;;;;;;33.87;47.40;98578.69;4211303;28;21241;-87
2022/06/18 08:54:03;;;;;;;4.57;4.00;;;;;;;33.91;48.11;98575.28;4210179;28;21749;-89
2022/06/18 08:56:09;;;;;;;4.57;3.70;;;;;;;33.99;50.69;98574.91;4191185;28;21248;-88
2022/06/18 08:58:25;;;;;;;5.20;4.17;;;;;;;33.98;48.70;98567.88;4210329;28;20685;-86
2022/06/18 09:00:33;;;;;;;4.23;3.83;;;;;;;34.04;49.40;98572.31;4207613;28;21257;-86
2022/06/18 09:02:39;;;;;;;4.77;4.23;;;;;;;34.07;48.48;98571.00;4205071;28;21365;-86
2022/06/18 09:05:12;;;;;;;4.63;4.07;;;;;;;34.11;49.74;98562.16;4212228;28;21015;-88
2022/06/18 09:07:37;;;;;;;4.30;3.60;;;;;;;34.08;46.74;98568.06;4203824;28;20711;-88
2022/06/18 09:09:52;;;;;;;4.10;3.80;;;;;;;34.06;48.37;98564.78;4203028;28;20628;-88
2022/06/18 09:12:01;;;;;;;4.87;4.47;;;;;;;34.00;48.39;98563.03;4203155;28;20626;-88
2022/06/18 09:14:16;;;;;;;4.60;3.80;;;;;;;34.00;48.88;98554.91;4169043;28;20739;-88
2022/06/18 09:16:21;;;;;;;4.43;4.03;;;;;;;34.04;49.08;98561.50;4212910;28;21218;-88
2022/06/18 09:18:30;;;;;;;3.97;3.53;;;;;;;34.05;46.07;98557.69;4193858;28;20655;-88
2022/06/18 09:20:43;;;;;;;4.13;3.77;;;;;;;34.11;48.78;98556.72;4203364;28;21037;-88
2022/06/18 09:22:51;;;;;;;4.77;3.90;;;;;;;34.07;47.63;98550.16;4221465;28;20751;-88
2022/06/18 09:25:10;;;;;;;4.70;4.20;;;;;;;34.07;50.63;98557.44;4216423;28;21174;-91
2022/06/18 09:27:18;;;;;;;4.60;3.87;;;;;;;34.10;47.50;98549.69;4215159;28;20733;-91
2022/06/18 09:29:25;;;;;;;6.40;3.97;;;;;;;34.08;49.00;98550.97;4201634;28;20651;-88
2022/06/18 09:31:32;;;;;;;4.20;3.63;;;;;;;34.02;45.94;98546.53;4210875;28;20979;-90
2022/06/18 09:33:39;;;;;;;8.07;3.67;;;;;;;33.98;45.48;98538.06;4203731;28;20642;-91
2022/06/18 09:35:48;;;;;;;3.60;3.30;;;;;;;33.90;46.00;98546.56;4201081;28;20737;-92
2022/06/18 09:37:57;;;;;;;5.63;3.23;;;;;;;33.95;45.04;98543.97;4195551;28;21235;-92
2022/06/18 09:40:01;;;;;;;3.60;3.10;;;;;;;33.99;45.78;98539.69;4199373;28;20659;-93
2022/06/18 09:42:07;;;;;;;4.10;3.80;;;;;;;33.95;44.68;98543.97;4207897;28;21087;-92
2022/06/18 09:44:14;;;;;;;4.03;3.40;;;;;;;34.03;45.61;98540.88;4219227;28;21047;-92
2022/06/18 09:46:22;;;;;;;3.40;3.10;;;;;;;34.09;46.67;98545.31;4208542;28;21282;-92
2022/06/18 09:48:44;;;;;;;4.10;3.20;;;;;;;34.04;42.84;98528.97;4225163;28;20645;-92
2022/06/18 09:50:50;;;;;;;6.33;3.13;;;;;;;33.96;43.97;98528.53;4219133;28;20649;-93
2022/06/18 09:53:00;;;;;;;4.20;3.63;;;;;;;34.05;46.70;98530.59;4198303;28;20631;-93
2022/06/18 09:55:05;;;;;;;5.07;3.50;;;;;;;34.15;47.76;98538.94;4218680;28;21048;-89
2022/06/18 09:57:11;;;;;;;5.00;3.90;;;;;;;34.19;47.77;98529.25;4214799;28;21176;-89
2022/06/18 09:59:19;;;;;;;3.60;3.23;;;;;;;34.25;47.32;98527.44;4208265;28;20646;-89
2022/06/18 10:01:27;;;;;;;3.93;3.60;;;;;;;34.27;45.95;98523.44;4232677;27;20629;-89
2022/06/18 10:08:54;;;;;;;3.80;3.50;;;;;;;34.44;47.89;98529.75;4189649;28;21509;-87
2022/06/18 10:11:07;;;;;;;4.37;3.90;;;;;;;34.48;45.55;98526.28;4206852;28;20634;-86
2022/06/18 10:13:14;;;;;;;3.57;3.27;;;;;;;34.35;44.01;98523.03;4202012;28;21197;-88
2022/06/18 10:15:19;;;;;;;3.27;2.97;;;;;;;34.28;44.95;98525.09;4199421;28;20639;-91
2022/06/18 10:17:34;;;;;;;2.67;2.47;;;;;;;34.26;43.72;98516.38;4203810;28;20638;-91